Time;durP1;ratioP1;P1;durP2;ratioP2;P2;SDS_P1;SDS_P2;PMS_P1;PMS_P2;Temp;Humidity;BMP_temperature;BMP_pressure;BME280_temperature;BME280_humidity;BME280_pressure;Samples;Min_cycle;Max_cycle;Signal;HPM_P1;HPM_P2
2022/12/18 00:00:46;;;;;;;58.53;30.05;;;;;;;-5.85;70.67;101612.78;5029309;28;20632;-74
2022/12/18 00:03:13;;;;;;;58.53;29.60;;;;;;;-5.86;70.70;101613.75;5030060;28;20892;-75
2022/12/18 00:05:46;;;;;;;59.78;29.67;;;;;;;-5.86;70.93;101616.38;5031383;28;20391;-74
2022/12/18 00:08:11;;;;;;;57.20;28.60;;;;;;;-5.84;71.01;101617.09;5024210;28;20392;-74
2022/12/18 00:10:36;;;;;;;56.78;28.65;;;;;;;-5.75;71.00;101618.22;5026964;28;20759;-74
2022/12/18 00:13:02;;;;;;;50.47;27.07;;;;;;;-5.63;70.58;101611.22;5031151;28;20478;-74
2022/12/18 00:15:27;;;;;;;54.73;27.97;;;;;;;-5.57;70.96;101610.75;5031158;28;20421;-74
2022/12/18 00:17:52;;;;;;;56.13;27.77;;;;;;;-5.50;70.71;101612.00;5020712;28;20392;-74
2022/12/18 00:20:23;;;;;;;80.53;33.47;;;;;;;-5.85;70.71;101610.13;5025769;28;20391;-74
2022/12/18 00:22:48;;;;;;;74.30;34.23;;;;;;;-6.19;70.86;101618.00;5031238;28;20406;-74
2022/12/18 00:25:14;;;;;;;75.90;35.77;;;;;;;-6.25;72.01;101611.34;5016978;28;20882;-74
2022/12/18 00:27:39;;;;;;;73.20;33.37;;;;;;;-6.14;71.57;101616.69;5033958;28;20482;-74
2022/12/18 00:30:05;;;;;;;82.47;36.87;;;;;;;-6.29;71.41;101612.53;5034523;28;20508;-74
2022/12/18 00:32:30;;;;;;;92.23;38.07;;;;;;;-6.57;71.31;101625.94;5033113;28;20402;-74
2022/12/18 00:34:55;;;;;;;89.97;38.57;;;;;;;-6.67;71.22;101625.75;5032279;28;20399;-74
2022/12/18 00:37:21;;;;;;;100.80;38.27;;;;;;;-6.55;71.01;101624.06;5034813;28;20424;-74
2022/12/18 00:39:47;;;;;;;107.00;38.70;;;;;;;-6.65;71.54;101631.75;5034780;28;20395;-74
2022/12/18 00:42:58;;;;;;;106.63;40.55;;;;;;;-6.47;70.88;101641.03;5032767;28;20394;-74
2022/12/18 00:44:58;;;;;;;101.60;41.30;;;;;;;-6.35;70.48;101626.97;5021147;28;20407;-74
2022/12/18 00:47:24;;;;;;;96.23;39.80;;;;;;;-6.28;70.27;101618.63;5034289;28;20497;-74
2022/12/18 00:49:55;;;;;;;92.70;37.78;;;;;;;-6.26;70.17;101620.22;5033384;28;20894;-74
2022/12/18 00:52:20;;;;;;;94.75;36.85;;;;;;;-6.21;70.72;101615.44;5032154;28;20426;-74
2022/12/18 00:54:45;;;;;;;89.30;38.73;;;;;;;-6.18;70.07;101617.88;5034256;28;20391;-74
2022/12/18 00:57:11;;;;;;;85.73;36.23;;;;;;;-6.15;70.60;101619.44;5032087;28;20876;-75
2022/12/18 00:59:36;;;;;;;80.83;33.67;;;;;;;-6.15;70.25;101622.91;5028498;28;20395;-75
2022/12/18 01:02:01;;;;;;;81.37;34.53;;;;;;;-6.12;70.47;101621.84;5031297;28;20407;-75
2022/12/18 01:04:26;;;;;;;83.70;34.83;;;;;;;-6.12;70.21;101620.06;5034351;28;20876;-75
2022/12/18 01:06:52;;;;;;;82.73;34.17;;;;;;;-6.15;70.38;101625.56;5033897;28;20423;-74
2022/12/18 01:09:17;;;;;;;80.23;33.30;;;;;;;-6.15;70.36;101622.91;5033982;28;20406;-75
2022/12/18 01:11:42;;;;;;;76.43;31.50;;;;;;;-6.16;70.55;101621.25;5032341;28;20937;-75
2022/12/18 01:14:08;;;;;;;79.30;34.13;;;;;;;-6.11;70.65;101626.19;5031861;28;20395;-74
2022/12/18 01:16:33;;;;;;;76.73;35.37;;;;;;;-6.09;70.09;101624.28;5030629;28;20438;-75
2022/12/18 01:19:02;;;;;;;72.17;32.27;;;;;;;-6.06;70.42;101621.44;5032560;28;20830;-74
2022/12/18 01:21:27;;;;;;;75.53;33.95;;;;;;;-6.04;70.37;101615.09;5032548;28;20842;-74
2022/12/18 01:23:56;;;;;;;68.17;31.13;;;;;;;-5.99;69.98;101617.38;5033766;28;20466;-76
2022/12/18 01:26:22;;;;;;;72.78;31.80;;;;;;;-5.99;70.36;101618.22;5032823;28;20399;-75
2022/12/18 01:28:47;;;;;;;76.30;32.00;;;;;;;-5.99;70.35;101601.53;5033902;28;20747;-74
2022/12/18 01:31:26;;;;;;;72.33;33.13;;;;;;;-5.96;70.29;101596.88;5024904;28;20812;-74
2022/12/18 01:33:53;;;;;;;73.47;32.80;;;;;;;-5.94;70.15;101621.38;5033629;28;20786;-74
2022/12/18 01:36:32;;;;;;;71.90;32.50;;;;;;;-5.93;69.97;101628.34;5033591;28;20399;-74
2022/12/18 01:39:04;;;;;;;75.03;32.38;;;;;;;-5.97;70.11;101633.97;5020928;28;20419;-74
2022/12/18 01:42:16;;;;;;;72.03;31.05;;;;;;;-5.96;70.11;101625.91;5029082;28;20400;-74
2022/12/18 01:44:50;;;;;;;74.28;31.90;;;;;;;-5.90;70.41;101641.34;5025831;28;20403;-74
2022/12/18 01:47:24;;;;;;;66.82;31.10;;;;;;;-5.91;70.32;101641.44;5032267;28;20442;-74
2022/12/18 01:49:50;;;;;;;74.57;32.03;;;;;;;-5.91;69.98;101631.72;5031700;28;20497;-75
2022/12/18 01:52:17;;;;;;;69.82;31.23;;;;;;;-5.92;69.96;101619.47;5031847;28;20879;-74
2022/12/18 01:54:44;;;;;;;70.13;31.52;;;;;;;-5.91;70.56;101618.53;5032344;28;20395;-74
2022/12/18 01:57:09;;;;;;;65.57;29.15;;;;;;;-5.92;70.15;101615.97;5031923;28;20481;-74
2022/12/18 01:59:36;;;;;;;68.80;32.23;;;;;;;-5.96;70.25;101623.28;5033157;28;20799;-74
2022/12/18 02:02:03;;;;;;;69.27;31.83;;;;;;;-5.98;70.28;101625.19;5024887;28;20415;-75
2022/12/18 02:04:29;;;;;;;75.93;32.15;;;;;;;-5.99;70.69;101623.50;5033127;28;20407;-75
2022/12/18 02:07:16;;;;;;;75.35;32.58;;;;;;;-6.05;70.27;101623.09;5029959;28;20886;-74
2022/12/18 02:10:12;;;;;;;69.97;31.55;;;;;;;-6.07;70.51;101628.50;5031562;28;20422;-74
2022/12/18 02:13:10;;;;;;;65.72;30.45;;;;;;;-6.05;70.32;101637.13;5032787;28;20399;-74
2022/12/18 02:16:01;;;;;;;73.60;31.52;;;;;;;-6.07;70.32;101636.41;5020184;28;20407;-74
2022/12/18 02:18:35;;;;;;;70.10;31.40;;;;;;;-6.10;70.29;101647.19;5018774;28;20447;-74
2022/12/18 02:21:00;;;;;;;68.43;30.80;;;;;;;-6.11;70.31;101637.59;5031441;28;20480;-74
2022/12/18 02:23:46;;;;;;;69.70;30.60;;;;;;;-6.13;70.13;101636.00;5028221;28;20431;-75
2022/12/18 02:26:18;;;;;;;68.55;30.77;;;;;;;-6.23;69.96;101632.34;5031362;28;20477;-74
2022/12/18 02:28:51;;;;;;;67.82;31.38;;;;;;;-6.37;70.90;101631.53;5032571;28;20540;-74
2022/12/18 02:31:23;;;;;;;63.42;30.23;;;;;;;-6.27;70.16;101642.25;5027978;28;20407;-75
2022/12/18 02:33:51;;;;;;;73.00;31.70;;;;;;;-6.34;70.50;101636.59;5031218;28;20401;-75
2022/12/18 02:36:18;;;;;;;69.78;31.85;;;;;;;-6.30;70.48;101634.56;5031349;28;20890;-75
2022/12/18 02:38:45;;;;;;;65.78;30.38;;;;;;;-6.23;70.20;101630.56;5031140;28;20399;-75
2022/12/18 02:41:12;;;;;;;67.82;30.77;;;;;;;-6.20;70.36;101632.13;5022046;28;20410;-75
2022/12/18 02:43:38;;;;;;;64.22;30.13;;;;;;;-6.19;70.14;101634.63;5032605;28;20405;-74
2022/12/18 02:46:26;;;;;;;67.30;30.40;;;;;;;-6.17;70.33;101638.03;5032395;28;20399;-74
2022/12/18 02:49:00;;;;;;;75.00;32.13;;;;;;;-6.17;70.47;101624.00;5018357;28;20957;-74
2022/12/18 02:51:47;;;;;;;72.15;30.73;;;;;;;-6.17;70.41;101622.19;5032077;28;20400;-75
2022/12/18 02:54:26;;;;;;;69.20;30.10;;;;;;;-6.16;70.14;101628.31;5032080;28;20759;-75
2022/12/18 02:56:55;;;;;;;65.47;28.30;;;;;;;-6.16;70.53;101629.16;5026012;28;20768;-74
2022/12/18 02:59:49;;;;;;;60.35;28.38;;;;;;;-6.18;70.49;101638.97;5031097;28;20862;-75
2022/12/18 03:02:57;;;;;;;69.30;29.85;;;;;;;-6.22;70.37;101655.16;5029433;28;20415;-75
2022/12/18 03:05:36;;;;;;;68.57;29.38;;;;;;;-6.22;70.13;101649.88;5030439;28;20442;-74
2022/12/18 03:08:25;;;;;;;63.67;28.13;;;;;;;-6.23;70.31;101650.81;5031748;28;20391;-75
2022/12/18 03:11:00;;;;;;;66.57;27.73;;;;;;;-6.25;70.20;101645.63;5031780;28;20418;-74
2022/12/18 03:13:33;;;;;;;64.53;28.10;;;;;;;-6.28;70.03;101647.63;5027458;28;20420;-74
2022/12/18 03:16:00;;;;;;;64.72;29.23;;;;;;;-6.30;69.99;101642.47;5031523;28;20525;-74
2022/12/18 03:18:34;;;;;;;76.45;31.17;;;;;;;-6.29;69.79;101649.47;5029892;28;20410;-75
2022/12/18 03:21:04;;;;;;;64.27;29.00;;;;;;;-6.32;69.91;101649.66;5031807;28;20928;-75
2022/12/18 03:23:34;;;;;;;64.55;28.05;;;;;;;-6.35;69.46;101655.13;5031990;28;20418;-74
2022/12/18 03:26:07;;;;;;;70.30;30.58;;;;;;;-6.37;69.73;101651.78;5015683;28;20399;-74
2022/12/18 03:28:36;;;;;;;62.90;27.98;;;;;;;-6.38;69.44;101653.56;5021971;28;20449;-75
2022/12/18 03:31:04;;;;;;;66.70;28.88;;;;;;;-6.42;69.60;101652.09;5022038;28;20416;-75
2022/12/18 03:33:38;;;;;;;68.17;29.90;;;;;;;-6.44;69.50;101650.50;5029248;28;20754;-75
2022/12/18 03:36:03;;;;;;;65.25;29.00;;;;;;;-6.39;69.47;101645.78;5031680;28;20383;-74
2022/12/18 03:38:29;;;;;;;68.73;29.47;;;;;;;-6.40;69.81;101644.94;5031661;28;20478;-74
2022/12/18 03:41:09;;;;;;;62.57;29.03;;;;;;;-6.37;69.53;101646.50;5031469;28;20453;-74
2022/12/18 03:43:48;;;;;;;63.22;29.40;;;;;;;-6.34;69.42;101643.66;5030759;28;20858;-74
2022/12/18 03:46:25;;;;;;;66.38;30.38;;;;;;;-6.36;69.24;101637.66;5031173;28;20411;-74
2022/12/18 03:49:36;;;;;;;64.05;29.55;;;;;;;-6.34;69.59;101636.59;5030629;28;20398;-74
2022/12/18 03:52:09;;;;;;;63.88;28.58;;;;;;;-6.32;69.80;101618.00;4993027;28;20411;-74
2022/12/18 03:54:36;;;;;;;63.53;28.85;;;;;;;-6.42;69.64;101625.72;5009258;28;20415;-75
2022/12/18 03:57:07;;;;;;;60.20;28.08;;;;;;;-6.39;69.79;101630.78;5019227;28;20411;-74
2022/12/18 03:59:34;;;;;;;61.83;28.25;;;;;;;-6.37;69.70;101634.16;5028160;28;20407;-75
2022/12/18 04:02:03;;;;;;;61.88;28.27;;;;;;;-6.33;69.59;101626.88;5032071;28;20383;-74
2022/12/18 04:04:29;;;;;;;59.50;27.88;;;;;;;-6.29;70.00;101625.72;5029572;28;20400;-75
2022/12/18 04:06:56;;;;;;;67.30;29.42;;;;;;;-6.26;69.47;101625.50;5033662;28;20486;-74
2022/12/18 04:09:22;;;;;;;62.17;28.85;;;;;;;-6.21;69.64;101631.28;5034186;28;20414;-74
2022/12/18 04:11:47;;;;;;;60.95;27.70;;;;;;;-6.14;69.81;101637.81;5035212;28;20447;-74
2022/12/18 04:14:13;;;;;;;65.75;28.17;;;;;;;-6.06;69.65;101639.91;5035122;28;20383;-75
2022/12/18 04:16:38;;;;;;;64.35;28.90;;;;;;;-5.99;69.55;101636.69;5033669;28;20387;-75
2022/12/18 04:19:04;;;;;;;62.47;27.17;;;;;;;-5.92;69.83;101635.31;5020646;28;20444;-75
2022/12/18 04:21:29;;;;;;;89.17;35.03;;;;;;;-5.85;70.12;101622.47;5029241;28;20404;-74
2022/12/18 04:23:55;;;;;;;88.57;34.13;;;;;;;-5.81;70.01;101627.44;5027610;28;20406;-75
2022/12/18 04:26:20;;;;;;;67.63;31.13;;;;;;;-5.74;70.45;101627.84;5030093;28;20409;-74
2022/12/18 04:28:45;;;;;;;71.37;29.87;;;;;;;-5.70;70.82;101625.81;5032004;28;20415;-74
2022/12/18 04:31:11;;;;;;;64.83;28.50;;;;;;;-5.65;70.80;101619.22;5034658;28;20422;-75
2022/12/18 04:33:36;;;;;;;76.20;32.70;;;;;;;-5.61;71.16;101628.63;5034713;28;20402;-74
2022/12/18 04:36:01;;;;;;;80.57;34.63;;;;;;;-5.54;71.16;101627.22;5034568;28;20403;-74
2022/12/18 04:38:27;;;;;;;103.43;42.63;;;;;;;-5.49;71.43;101632.13;5030321;28;20425;-74
2022/12/18 04:40:52;;;;;;;132.77;59.03;;;;;;;-5.48;71.96;101639.97;5031251;28;20443;-75
2022/12/18 04:43:17;;;;;;;136.67;51.00;;;;;;;-5.46;71.78;101640.69;5034607;28;20446;-74
2022/12/18 04:45:43;;;;;;;142.65;58.85;;;;;;;-5.39;72.17;101641.91;5034327;28;20494;-74
2022/12/18 04:48:08;;;;;;;149.50;58.50;;;;;;;-5.38;72.38;101633.03;5034902;28;20548;-74
2022/12/18 04:50:33;;;;;;;157.73;63.27;;;;;;;-5.39;72.57;101631.34;5026711;28;20427;-74
2022/12/18 04:52:58;;;;;;;78.57;34.53;;;;;;;-5.41;72.99;101630.63;5033354;28;20484;-74
2022/12/18 04:55:24;;;;;;;71.93;32.13;;;;;;;-5.35;73.09;101632.81;5029805;28;20397;-74
2022/12/18 04:57:49;;;;;;;67.07;29.63;;;;;;;-5.32;73.00;101639.66;5030632;28;20395;-75
2022/12/18 05:00:15;;;;;;;144.73;59.07;;;;;;;-5.29;73.16;101639.44;5034217;28;20391;-74
2022/12/18 05:02:40;;;;;;;141.17;55.70;;;;;;;-5.24;72.99;101642.59;5023732;28;20412;-75
2022/12/18 05:05:06;;;;;;;102.60;42.37;;;;;;;-5.24;73.42;101642.59;5058145;28;20410;-74
2022/12/18 05:07:31;;;;;;;72.70;31.37;;;;;;;-5.25;73.94;101641.75;5035548;28;20498;-74
2022/12/18 05:09:56;;;;;;;73.00;30.87;;;;;;;-5.22;73.60;101655.66;5021567;28;20422;-74
2022/12/18 05:12:22;;;;;;;73.47;32.23;;;;;;;-5.23;73.85;101654.81;5027114;28;20896;-74
2022/12/18 05:14:47;;;;;;;67.30;29.00;;;;;;;-5.18;74.27;101659.78;5024183;28;20477;-74
2022/12/18 05:17:12;;;;;;;72.40;30.00;;;;;;;-5.17;73.85;101656.19;5029962;28;20835;-74
2022/12/18 05:19:37;;;;;;;66.57;30.23;;;;;;;-5.16;74.75;101655.22;5031539;28;20410;-74
2022/12/18 05:22:03;;;;;;;69.35;29.88;;;;;;;-5.12;74.33;101646.94;5034943;28;20390;-74
2022/12/18 05:24:28;;;;;;;70.93;30.00;;;;;;;-5.09;74.59;101651.16;5032750;28;20720;-74
2022/12/18 05:26:53;;;;;;;67.00;29.33;;;;;;;-5.09;74.66;101653.78;5012091;28;20405;-74
2022/12/18 05:29:19;;;;;;;73.23;29.50;;;;;;;-5.11;74.37;101645.16;5029303;28;20742;-74
2022/12/18 05:31:44;;;;;;;59.83;27.93;;;;;;;-5.07;74.43;101642.13;5032965;28;20473;-74
2022/12/18 05:34:09;;;;;;;73.80;30.57;;;;;;;-5.01;74.38;101649.63;5033751;28;20403;-75
2022/12/18 05:36:35;;;;;;;66.17;29.33;;;;;;;-4.98;74.66;101645.91;5033276;28;20746;-74
2022/12/18 05:39:00;;;;;;;72.13;30.13;;;;;;;-4.97;74.15;101651.06;5030072;28;20411;-74
2022/12/18 05:41:26;;;;;;;59.78;28.75;;;;;;;-4.92;74.75;101638.34;5030889;28;20499;-75
2022/12/18 05:43:51;;;;;;;71.05;29.60;;;;;;;-4.92;74.54;101638.34;5033376;28;20407;-74
2022/12/18 05:46:17;;;;;;;62.10;28.17;;;;;;;-4.88;74.25;101644.25;5030001;28;20448;-74
2022/12/18 05:48:44;;;;;;;65.85;28.52;;;;;;;-4.94;74.21;101647.38;5027652;28;20874;-74
2022/12/18 05:51:12;;;;;;;66.53;29.15;;;;;;;-4.97;74.93;101651.06;5033110;28;20521;-75
2022/12/18 05:53:38;;;;;;;66.32;28.27;;;;;;;-4.94;75.15;101647.38;5030694;28;20399;-75
2022/12/18 05:56:05;;;;;;;71.10;30.25;;;;;;;-4.93;74.94;101652.53;5038797;28;20378;-75
2022/12/18 05:58:32;;;;;;;69.30;31.05;;;;;;;-4.97;74.77;101656.34;5038988;28;20402;-75
2022/12/18 06:01:05;;;;;;;65.40;30.38;;;;;;;-4.98;75.03;101659.13;5032855;28;20409;-74
2022/12/18 06:03:30;;;;;;;67.10;29.83;;;;;;;-4.96;74.95;101660.69;5025070;28;20490;-74
2022/12/18 06:05:55;;;;;;;69.82;29.75;;;;;;;-4.99;75.47;101663.56;5036604;28;20492;-74
2022/12/18 06:08:21;;;;;;;70.17;30.07;;;;;;;-4.97;75.14;101658.19;5037178;28;20391;-75
2022/12/18 06:10:51;;;;;;;69.90;31.08;;;;;;;-4.93;75.38;101665.75;5027798;28;20814;-74
2022/12/18 06:13:16;;;;;;;73.03;31.20;;;;;;;-4.86;75.30;101669.59;5042683;28;20403;-74
2022/12/18 06:15:41;;;;;;;70.17;30.63;;;;;;;-4.81;75.18;101669.28;5039954;28;20465;-74
2022/12/18 06:18:07;;;;;;;65.10;29.33;;;;;;;-4.79;74.94;101676.13;5021293;28;20393;-74
2022/12/18 06:20:32;;;;;;;71.60;30.70;;;;;;;-4.80;75.32;101674.44;5031632;28;20470;-74
2022/12/18 06:22:57;;;;;;;76.60;31.13;;;;;;;-4.78;75.43;101683.09;5031543;28;20391;-74
2022/12/18 06:25:23;;;;;;;73.57;30.07;;;;;;;-4.79;75.14;101684.06;5029285;28;20541;-75
2022/12/18 06:27:48;;;;;;;71.47;29.30;;;;;;;-4.76;75.16;101689.09;5025778;28;20942;-74
2022/12/18 06:30:14;;;;;;;75.77;31.77;;;;;;;-4.73;75.40;101693.31;5031612;28;20418;-74
2022/12/18 06:32:39;;;;;;;78.43;32.43;;;;;;;-4.71;74.99;101696.69;5031666;28;20393;-74
2022/12/18 06:35:05;;;;;;;68.70;29.20;;;;;;;-4.73;75.60;101698.59;5034845;28;20405;-74
2022/12/18 06:37:31;;;;;;;73.22;32.15;;;;;;;-4.77;75.61;101699.78;5036346;28;20865;-74
2022/12/18 06:39:56;;;;;;;74.03;30.80;;;;;;;-4.77;75.65;101705.06;5031803;28;20406;-74
2022/12/18 06:42:22;;;;;;;78.57;32.03;;;;;;;-4.77;75.68;101702.44;5030146;28;21017;-74
2022/12/18 06:44:47;;;;;;;84.78;32.58;;;;;;;-4.76;75.88;101717.34;5018227;28;20984;-73
2022/12/18 06:47:13;;;;;;;77.07;31.43;;;;;;;-4.94;75.92;101706.34;5028728;28;20407;-74
2022/12/18 06:49:38;;;;;;;74.57;30.53;;;;;;;-4.99;76.61;101705.84;5035063;28;20418;-74
2022/12/18 06:52:03;;;;;;;77.72;32.47;;;;;;;-4.90;76.55;101707.81;5029250;28;20494;-74
2022/12/18 06:54:29;;;;;;;83.17;31.93;;;;;;;-4.94;76.38;101710.81;5026330;28;20407;-74
2022/12/18 06:56:54;;;;;;;78.90;31.97;;;;;;;-5.04;76.70;101715.09;5033648;28;20948;-75
2022/12/18 06:59:19;;;;;;;85.37;33.10;;;;;;;-4.92;76.76;101717.66;5026594;28;20412;-76
2022/12/18 07:01:44;;;;;;;84.80;32.87;;;;;;;-4.79;76.58;101704.34;5013735;28;20752;-75
2022/12/18 07:04:10;;;;;;;75.60;31.67;;;;;;;-4.80;76.14;101708.81;5018694;28;20459;-75
2022/12/18 07:06:35;;;;;;;85.07;33.53;;;;;;;-4.87;76.33;101714.66;5028352;28;20418;-76
2022/12/18 07:09:00;;;;;;;85.78;34.38;;;;;;;-5.06;76.59;101715.19;5033596;28;20826;-75
2022/12/18 07:11:26;;;;;;;83.07;32.93;;;;;;;-4.99;77.44;101724.38;5028886;28;20911;-74
2022/12/18 07:13:52;;;;;;;77.70;33.37;;;;;;;-4.84;76.85;101723.19;5028152;28;20409;-74
2022/12/18 07:16:20;;;;;;;83.78;37.00;;;;;;;-4.73;76.61;101712.66;5029218;28;20395;-75
2022/12/18 07:18:45;;;;;;;84.40;33.13;;;;;;;-4.78;76.41;101717.47;5024665;28;20473;-74
2022/12/18 07:21:13;;;;;;;87.15;34.88;;;;;;;-4.68;76.81;101720.28;5023704;28;20404;-74
2022/12/18 07:23:39;;;;;;;82.10;36.23;;;;;;;-4.63;76.13;101718.09;5020976;28;20472;-75
2022/12/18 07:26:09;;;;;;;79.57;33.03;;;;;;;-4.59;76.35;101713.44;5030991;28;20403;-75
2022/12/18 07:28:35;;;;;;;84.15;33.45;;;;;;;-4.52;75.96;101717.28;5027511;28;20473;-74
2022/12/18 07:31:06;;;;;;;80.87;32.80;;;;;;;-4.51;76.21;101716.34;5030125;28;20426;-74
2022/12/18 07:33:32;;;;;;;81.23;33.47;;;;;;;-4.54;76.57;101716.53;5021500;28;20539;-74
2022/12/18 07:35:59;;;;;;;81.50;34.85;;;;;;;-4.52;76.58;101727.88;5028977;28;20402;-74
2022/12/18 07:38:24;;;;;;;78.90;34.30;;;;;;;-4.47;76.13;101731.00;5028050;28;20814;-74
2022/12/18 07:40:49;;;;;;;75.47;32.83;;;;;;;-4.46;76.36;101735.34;5019334;28;20408;-74
2022/12/18 07:43:14;;;;;;;84.13;33.60;;;;;;;-4.46;75.88;101741.47;5027492;28;20407;-74
2022/12/18 07:45:40;;;;;;;82.57;33.97;;;;;;;-4.46;76.18;101735.34;5024282;28;20415;-74
2022/12/18 07:48:05;;;;;;;74.87;32.50;;;;;;;-4.43;76.10;101735.09;5024302;28;20851;-74
2022/12/18 07:50:30;;;;;;;83.37;34.43;;;;;;;-4.45;76.09;101739.69;5026955;28;20430;-74
2022/12/18 07:52:56;;;;;;;83.13;33.70;;;;;;;-4.42;76.26;101748.22;5029108;28;20414;-74
2022/12/18 07:55:21;;;;;;;79.47;33.17;;;;;;;-4.42;76.23;101753.53;5023756;28;20403;-74
2022/12/18 07:57:46;;;;;;;81.07;33.63;;;;;;;-4.44;76.26;101752.78;5028769;28;20908;-74
2022/12/18 08:00:12;;;;;;;76.13;32.40;;;;;;;-4.41;76.16;101754.38;5029875;28;20411;-74
2022/12/18 08:02:37;;;;;;;80.50;32.75;;;;;;;-4.36;76.18;101752.19;5029003;28;20407;-75
2022/12/18 08:05:03;;;;;;;83.57;34.28;;;;;;;-4.31;76.28;101761.47;5016749;28;20403;-74
2022/12/18 08:07:28;;;;;;;75.65;33.55;;;;;;;-4.28;75.90;101757.75;5023732;28;20850;-75
2022/12/18 08:09:54;;;;;;;78.77;34.43;;;;;;;-4.28;76.39;101753.28;5029943;28;21135;-75
2022/12/18 08:12:19;;;;;;;85.97;35.27;;;;;;;-4.28;75.90;101768.34;5035552;28;20492;-75
2022/12/18 08:14:44;;;;;;;84.45;36.40;;;;;;;-4.26;76.64;101759.31;5023026;28;20890;-75
2022/12/18 08:17:09;;;;;;;75.63;33.17;;;;;;;-4.29;76.14;101769.28;5026518;28;20415;-74
2022/12/18 08:19:35;;;;;;;84.80;33.13;;;;;;;-4.27;75.77;101765.56;5017731;28;21002;-75
2022/12/18 08:22:00;;;;;;;77.57;32.80;;;;;;;-4.36;76.39;101768.91;5020447;28;20436;-75
2022/12/18 08:24:25;;;;;;;81.40;34.73;;;;;;;-4.51;76.83;101770.06;5019218;28;20410;-75
2022/12/18 08:26:51;;;;;;;79.00;31.50;;;;;;;-4.52;77.17;101765.75;5017357;28;20477;-75
2022/12/18 08:29:16;;;;;;;77.30;31.97;;;;;;;-4.46;77.33;101753.84;5027652;28;20443;-75
2022/12/18 08:31:41;;;;;;;73.17;30.27;;;;;;;-4.32;76.71;101754.50;5029750;28;20916;-76
2022/12/18 08:34:07;;;;;;;74.13;31.73;;;;;;;-4.23;76.53;101756.44;5010290;28;20903;-75
2022/12/18 08:36:33;;;;;;;73.18;31.15;;;;;;;-4.33;76.09;101747.50;5020893;28;20455;-76
2022/12/18 08:38:58;;;;;;;79.33;32.63;;;;;;;-4.41;76.71;101744.59;5026856;28;20890;-75
2022/12/18 08:41:23;;;;;;;83.10;31.27;;;;;;;-4.37;76.68;101735.47;5023309;28;20484;-74
2022/12/18 08:46:41;;;;;;;82.90;33.30;;;;;;;-4.23;76.19;101727.31;5024831;28;20997;-75
2022/12/18 08:49:08;;;;;;;83.43;32.92;;;;;;;-4.22;76.71;101720.22;5020200;28;20411;-74
2022/12/18 08:51:34;;;;;;;73.37;31.57;;;;;;;-4.11;76.61;101714.91;5027053;28;20441;-74
2022/12/18 08:54:00;;;;;;;83.15;31.38;;;;;;;-4.03;76.13;101714.31;5018384;28;20428;-74
2022/12/18 08:56:25;;;;;;;76.38;30.75;;;;;;;-3.99;76.05;101716.63;5025529;28;20407;-74
2022/12/18 08:58:52;;;;;;;71.10;29.10;;;;;;;-3.97;75.98;101708.53;5019700;28;20407;-74
2022/12/18 09:01:18;;;;;;;77.63;30.83;;;;;;;-3.93;76.04;101718.78;5020312;28;20398;-74
2022/12/18 09:03:48;;;;;;;68.00;28.85;;;;;;;-4.13;75.92;101713.38;5026026;28;20732;-74
2022/12/18 09:06:15;;;;;;;70.18;29.17;;;;;;;-4.11;76.52;101706.13;5031185;28;20449;-74
2022/12/18 09:08:42;;;;;;;69.65;28.42;;;;;;;-4.11;76.37;101712.28;5028190;28;20395;-74
2022/12/18 09:11:19;;;;;;;74.25;30.95;;;;;;;-4.09;76.33;101717.47;5029071;28;20921;-72
2022/12/18 09:13:44;;;;;;;90.75;37.92;;;;;;;-4.06;76.06;101723.34;5031782;28;20498;-75
2022/12/18 09:16:09;;;;;;;75.80;30.87;;;;;;;-4.15;76.41;101731.19;5029672;28;20813;-74
2022/12/18 09:18:35;;;;;;;89.93;36.23;;;;;;;-4.25;76.02;101725.75;5024205;28;20402;-75
2022/12/18 09:21:14;;;;;;;91.43;38.77;;;;;;;-4.43;77.10;101733.31;5020460;28;20888;-75
2022/12/18 09:23:40;;;;;;;76.38;31.23;;;;;;;-4.57;77.46;101733.50;5025003;28;20407;-75
2022/12/18 09:26:06;;;;;;;81.70;32.70;;;;;;;-4.52;77.79;101741.94;5033025;28;20424;-74
2022/12/18 09:28:31;;;;;;;82.20;31.27;;;;;;;-4.28;77.76;101742.69;5030978;28;20418;-74
2022/12/18 09:30:56;;;;;;;70.37;30.83;;;;;;;-4.07;77.14;101747.28;5027047;28;20470;-74
2022/12/18 09:33:22;;;;;;;75.00;31.23;;;;;;;-3.93;76.26;101762.94;5023750;28;20884;-74
2022/12/18 09:35:47;;;;;;;74.67;31.40;;;;;;;-3.86;75.93;101777.41;5027355;28;20550;-74
2022/12/18 09:38:17;;;;;;;79.37;32.63;;;;;;;-3.83;75.95;101763.91;5028581;28;20421;-74
2022/12/18 09:40:53;;;;;;;83.53;31.95;;;;;;;-3.87;76.01;101751.88;5024543;28;20404;-73
2022/12/18 09:43:42;;;;;;;70.72;29.98;;;;;;;-4.01;76.00;101758.25;5018631;28;20449;-74
2022/12/18 09:46:15;;;;;;;71.35;30.08;;;;;;;-4.14;76.46;101759.31;5023584;28;20423;-74
2022/12/18 09:48:44;;;;;;;68.87;30.90;;;;;;;-4.16;76.66;101761.25;5038064;28;20399;-74
2022/12/18 09:51:27;;;;;;;70.63;29.42;;;;;;;-4.22;77.25;101765.22;5026757;28;20418;-74
2022/12/18 09:54:10;;;;;;;79.30;33.23;;;;;;;-4.22;77.05;101781.94;5032563;28;20817;-72
2022/12/18 09:56:41;;;;;;;77.22;30.75;;;;;;;-4.01;76.87;101779.44;5028221;28;20398;-72
2022/12/18 09:59:25;;;;;;;76.53;29.50;;;;;;;-4.12;76.78;101795.31;5025413;28;20462;-72
2022/12/18 10:01:51;;;;;;;75.30;31.75;;;;;;;-3.98;76.69;101792.44;5023155;28;20448;-74
2022/12/18 10:04:16;;;;;;;75.17;30.87;;;;;;;-3.84;76.40;101778.13;5027663;28;20774;-74
2022/12/18 10:06:47;;;;;;;70.20;30.35;;;;;;;-3.90;76.24;101792.69;5027259;28;20401;-74
2022/12/18 10:09:45;;;;;;;80.47;33.57;;;;;;;-4.00;76.52;101785.56;5026885;28;20482;-74
2022/12/18 10:12:36;;;;;;;84.70;34.42;;;;;;;-3.89;76.37;101789.09;5022457;28;20892;-74
2022/12/18 10:15:23;;;;;;;74.88;32.40;;;;;;;-3.69;76.05;101779.56;5015269;28;20399;-74
2022/12/18 10:18:04;;;;;;;81.38;32.88;;;;;;;-3.58;75.75;101778.69;5023814;28;20517;-74
2022/12/18 10:20:40;;;;;;;82.28;32.58;;;;;;;-3.70;76.06;101778.72;5029041;28;20530;-74
2022/12/18 10:23:32;;;;;;;80.18;32.42;;;;;;;-3.60;75.50;101767.41;5017143;28;20396;-74
2022/12/18 10:26:02;;;;;;;71.93;31.13;;;;;;;-3.61;75.46;101760.41;5029537;28;20403;-74
2022/12/18 10:28:30;;;;;;;78.95;32.55;;;;;;;-3.53;75.46;101758.84;5026519;28;21015;-74
2022/12/18 10:30:55;;;;;;;76.03;32.60;;;;;;;-3.42;75.36;101774.72;5023610;28;20890;-73
2022/12/18 10:33:23;;;;;;;72.20;31.17;;;;;;;-3.34;75.39;101763.50;5028198;28;20453;-73
2022/12/18 10:35:51;;;;;;;84.13;33.53;;;;;;;-3.28;75.08;101755.06;5020651;28;20466;-74
2022/12/18 10:38:17;;;;;;;76.75;32.90;;;;;;;-3.40;74.88;101751.59;5018459;28;20401;-74
2022/12/18 10:40:54;;;;;;;79.03;37.33;;;;;;;-3.63;75.33;101762.34;5025525;28;20496;-74
2022/12/18 10:43:23;;;;;;;243.27;121.32;;;;;;;-3.55;75.59;101763.41;5034169;28;20464;-74
2022/12/18 10:46:05;;;;;;;109.45;48.45;;;;;;;-3.40;75.42;101767.50;5036270;28;20506;-73
2022/12/18 10:48:31;;;;;;;99.20;43.92;;;;;;;-3.28;74.94;101763.00;5029501;28;20401;-74
2022/12/18 10:50:57;;;;;;;93.53;40.03;;;;;;;-3.39;74.93;101755.09;5027720;28;20823;-73
2022/12/18 10:53:29;;;;;;;75.23;35.37;;;;;;;-3.29;75.41;101738.31;5036214;28;20403;-73
2022/12/18 10:55:58;;;;;;;81.30;34.27;;;;;;;-3.17;74.98;101734.66;5028996;28;20438;-73
2022/12/18 10:58:27;;;;;;;79.20;34.22;;;;;;;-3.08;74.34;101737.53;5028889;28;20473;-74
2022/12/18 11:01:01;;;;;;;82.68;33.03;;;;;;;-3.18;74.56;101750.69;5028359;28;20399;-74
2022/12/18 11:03:35;;;;;;;83.03;33.83;;;;;;;-3.10;74.88;101753.56;5027918;28;20426;-74
2022/12/18 11:06:13;;;;;;;78.07;32.67;;;;;;;-3.10;74.11;101747.41;5016940;28;20796;-74
2022/12/18 11:08:40;;;;;;;75.65;33.10;;;;;;;-2.98;74.42;101759.66;5027895;28;20410;-74
2022/12/18 11:11:16;;;;;;;76.13;32.13;;;;;;;-2.90;73.91;101752.78;5034853;28;20767;-74
2022/12/18 11:13:53;;;;;;;68.32;30.98;;;;;;;-2.86;73.95;101751.53;5031289;28;20929;-74
2022/12/18 11:16:19;;;;;;;77.97;34.43;;;;;;;-2.85;74.01;101755.03;5027797;28;20432;-74
2022/12/18 11:18:46;;;;;;;78.75;34.53;;;;;;;-2.86;74.46;101750.69;5027870;28;20407;-74
2022/12/18 11:21:13;;;;;;;72.72;32.63;;;;;;;-2.80;74.55;101755.50;5032201;28;20558;-74